Time;durP1;ratioP1;P1;durP2;ratioP2;P2;SDS_P1;SDS_P2;PMS_P1;PMS_P2;Temp;Humidity;BMP_temperature;BMP_pressure;BME280_temperature;BME280_humidity;BME280_pressure;Samples;Min_cycle;Max_cycle;Signal;HPM_P1;HPM_P2
2023/06/09 00:05:46;;;;;;;1.65;1.35;;;;;;;;;;4880885;29;20053;-89
2023/06/09 00:12:03;;;;;;;3.38;1.77;;;;;;;;;;4966990;28;20077;-91
2023/06/09 00:26:59;;;;;;;1.60;1.10;;;;;;;;;;4975456;28;20059;-91
2023/06/09 00:29:45;;;;;;;1.83;1.50;;;;;;;;;;4977938;28;20117;-89
2023/06/09 00:32:28;;;;;;;1.63;1.10;;;;;;;;;;5023936;28;20411;-91
2023/06/09 00:34:57;;;;;;;1.45;1.20;;;;;;;;;;5050785;28;20059;-90
2023/06/09 00:37:58;;;;;;;2.65;1.65;;;;;;;;;;5054816;28;20037;-89
2023/06/09 00:43:50;;;;;;;3.33;1.33;;;;;;;;;;5051629;28;20094;-91
2023/06/09 00:46:27;;;;;;;1.88;1.20;;;;;;;;;;5036962;28;20028;-90
2023/06/09 00:49:09;;;;;;;;;;;;;;;;;;;;;
2023/06/09 00:51:48;;;;;;;1.73;1.48;;;;;;;;;;5052914;28;20029;-89
2023/06/09 00:54:36;;;;;;;2.83;1.45;;;;;;;;;;5054916;28;20469;-90
2023/06/09 00:57:19;;;;;;;1.48;1.38;;;;;;;;;;5050616;28;20025;-89
2023/06/09 01:00:59;;;;;;;2.05;1.40;;;;;;;;;;5054019;28;20032;-90
2023/06/09 01:03:57;;;;;;;;;;;;;;;;;;;;;
2023/06/09 01:06:56;;;;;;;2.75;1.83;;;;;;;;;;5055083;28;20029;-87
2023/06/09 01:10:01;;;;;;;2.35;1.35;;;;;;;;;;5007946;28;20147;-90
2023/06/09 01:16:33;;;;;;;1.67;1.13;;;;;;;;;;4993541;28;20565;-91
2023/06/09 01:23:09;;;;;;;3.28;1.52;;;;;;;;;;4967312;28;20034;-90
2023/06/09 01:26:19;;;;;;;2.58;1.23;;;;;;;;;;4968007;28;20040;-90
2023/06/09 01:28:49;;;;;;;;;;;;;;;;;;4967175;28;20042;-88
2023/06/09 01:31:22;;;;;;;2.08;1.27;;;;;;;;;;4974994;28;19914;-89
2023/06/09 01:33:53;;;;;;;1.98;1.50;;;;;;;;;;4993567;28;20567;-90
2023/06/09 01:36:40;;;;;;;1.70;1.40;;;;;;;;;;5031805;28;20042;-89
2023/06/09 01:39:10;;;;;;;1.77;1.58;;;;;;;;;;5031753;28;20036;-89
2023/06/09 01:41:58;;;;;;;2.55;1.45;;;;;;;;;;5051726;28;20036;-89
2023/06/09 01:44:27;;;;;;;2.05;1.55;;;;;;;;;;5052081;28;20024;-89
2023/06/09 01:46:57;;;;;;;1.88;1.33;;;;;;;;;;5063462;28;20093;-89
2023/06/09 01:49:48;;;;;;;2.13;1.42;;;;;;;;;;5076584;28;20036;-89
2023/06/09 01:52:51;;;;;;;2.15;1.10;;;;;;;;;;5068358;28;20028;-88
2023/06/09 01:55:43;;;;;;;1.35;1.20;;;;;;;;;;5033510;28;20044;-89
2023/06/09 01:58:19;;;;;;;1.63;1.13;;;;;;;;;;5074444;28;20085;-87
2023/06/09 02:01:17;;;;;;;2.80;1.55;;;;;;;;;;5055598;28;20085;-89
2023/06/09 02:03:46;;;;;;;4.15;1.92;;;;;;;;;;5074576;28;20055;-91
2023/06/09 02:06:19;;;;;;;1.13;1.02;;;;;;;;;;5053181;28;20037;-89
2023/06/09 02:08:58;;;;;;;1.63;1.23;;;;;;;;;;5072964;28;20060;-88
2023/06/09 02:11:47;;;;;;;1.83;1.40;;;;;;;;;;5052259;28;20071;-88
2023/06/09 02:14:12;;;;;;;1.52;1.30;;;;;;;;;;5051569;28;20037;-88
2023/06/09 02:16:53;;;;;;;6.55;2.13;;;;;;;;;;5059387;28;20028;-89
2023/06/09 02:19:46;;;;;;;1.35;1.05;;;;;;;;;;5055498;28;20024;-88
2023/06/09 02:22:27;;;;;;;1.40;1.30;;;;;;;;;;5052061;28;20056;-89
2023/06/09 02:24:58;;;;;;;2.30;1.60;;;;;;;;;;5054838;28;20085;-91
2023/06/09 02:27:47;;;;;;;1.65;1.05;;;;;;;;;;5056688;28;20036;-92
2023/06/09 02:30:15;;;;;;;3.77;2.13;;;;;;;;;;5055124;28;20047;-89
2023/06/09 02:32:55;;;;;;;2.88;1.70;;;;;;;;;;5070825;28;20078;-88
2023/06/09 02:35:50;;;;;;;3.58;1.35;;;;;;;;;;5056160;28;20039;-88
2023/06/09 02:38:43;;;;;;;1.38;0.98;;;;;;;;;;5046032;28;20044;-91
2023/06/09 02:41:21;;;;;;;3.03;2.20;;;;;;;;;;5050481;28;20020;-90
2023/06/09 02:43:56;;;;;;;2.30;1.67;;;;;;;;;;5055583;28;20140;-91
2023/06/09 02:49:34;;;;;;;1.75;0.90;;;;;;;;;;5065200;28;20036;-91
2023/06/09 02:52:09;;;;;;;2.65;2.08;;;;;;;;;;5056850;28;20027;-92
2023/06/09 02:54:51;;;;;;;7.32;1.40;;;;;;;;;;5056569;28;20029;-91
2023/06/09 03:00:25;;;;;;;2.83;1.83;;;;;;;;;;5074954;28;20032;-92
2023/06/09 03:03:28;;;;;;;1.98;1.75;;;;;;;;;;5062245;28;20353;-91
2023/06/09 03:06:29;;;;;;;;;;;;;;;;;;;;;
2023/06/09 03:09:12;;;;;;;1.42;1.13;;;;;;;;;;5070043;28;20540;-89
2023/06/09 03:12:44;;;;;;;;;;;;;;;;;;;;;
2023/06/09 03:16:06;;;;;;;2.33;1.27;;;;;;;;;;5025888;28;20043;-91
2023/06/09 03:19:28;;;;;;;1.25;0.90;;;;;;;;;;4988000;28;20045;-90
2023/06/09 03:22:28;;;;;;;1.25;1.10;;;;;;;;;;4977009;28;20034;-91
2023/06/09 03:25:30;;;;;;;1.35;1.08;;;;;;;;;;4972085;28;20042;-91
2023/06/09 03:28:00;;;;;;;1.00;0.90;;;;;;;;;;4990751;28;20030;-90
2023/06/09 03:30:35;;;;;;;1.40;1.13;;;;;;;;;;5012341;28;20468;-90
2023/06/09 03:33:37;;;;;;;;;;;;;;;;;;;;;
2023/06/09 03:36:55;;;;;;;2.42;1.40;;;;;;;;;;5026265;28;20048;-88
2023/06/09 03:39:28;;;;;;;1.25;1.15;;;;;;;;;;5030916;28;20039;-91
2023/06/09 03:42:14;;;;;;;1.40;0.93;;;;;;;;;;5032875;28;20117;-90
2023/06/09 03:45:18;;;;;;;2.17;1.50;;;;;;;;;;5057157;28;20025;-90
2023/06/09 03:48:22;;;;;;;1.08;0.98;;;;;;;;;;5068044;28;20674;-91
2023/06/09 03:51:41;;;;;;;2.00;1.17;;;;;;;;;;5072725;28;20055;-88
2023/06/09 03:54:34;;;;;;;3.40;1.60;;;;;;;;;;5073328;28;20480;-91
2023/06/09 03:57:00;;;;;;;1.85;1.52;;;;;;;;;;5053385;28;20104;-91
2023/06/09 03:59:26;;;;;;;1.42;1.10;;;;;;;;;;5054763;28;20103;-89
2023/06/09 04:01:59;;;;;;;1.75;1.20;;;;;;;;;;5070894;28;20433;-90
2023/06/09 04:04:31;;;;;;;1.60;1.23;;;;;;;;;;5056938;28;20061;-90
2023/06/09 04:06:59;;;;;;;2.28;1.40;;;;;;;;;;5075566;28;20055;-91
2023/06/09 04:09:25;;;;;;;2.70;1.80;;;;;;;;;;5052628;28;20136;-90
2023/06/09 04:12:01;;;;;;;1.95;1.35;;;;;;;;;;5049106;28;20032;-90
2023/06/09 04:14:27;;;;;;;2.95;1.80;;;;;;;;;;5056903;28;20036;-90
2023/06/09 04:16:56;;;;;;;2.25;1.42;;;;;;;;;;5060101;28;20038;-87
2023/06/09 04:19:21;;;;;;;1.25;1.15;;;;;;;;;;5058114;28;20036;-89
2023/06/09 04:21:48;;;;;;;2.80;1.70;;;;;;;;;;5074717;28;20024;-85
2023/06/09 04:24:14;;;;;;;2.00;1.70;;;;;;;;;;5057875;28;20052;-86
2023/06/09 04:26:44;;;;;;;2.17;1.88;;;;;;;;;;5056278;28;20032;-87
2023/06/09 04:29:10;;;;;;;3.38;2.05;;;;;;;;;;5051128;28;20024;-88
2023/06/09 04:31:42;;;;;;;2.72;1.55;;;;;;;;;;5055121;28;20032;-84
2023/06/09 04:34:12;;;;;;;3.92;1.13;;;;;;;;;;5067193;28;20023;-87
2023/06/09 04:36:38;;;;;;;;;;;;;;;;;;5070994;28;20115;-87
2023/06/09 04:39:08;;;;;;;2.33;1.90;;;;;;;;;;5073200;28;20382;-85
2023/06/09 04:41:33;;;;;;;2.13;1.90;;;;;;;;;;5073327;28;20032;-86
2023/06/09 04:44:04;;;;;;;8.95;2.33;;;;;;;;;;5054437;28;20115;-85
2023/06/09 04:46:39;;;;;;;5.72;1.95;;;;;;;;;;5073122;28;20032;-86
2023/06/09 04:49:08;;;;;;;2.30;1.80;;;;;;;;;;5072705;28;20419;-85
2023/06/09 04:51:47;;;;;;;;;;;;;;;;;;5051004;28;20048;-85
2023/06/09 04:54:20;;;;;;;4.35;1.33;;;;;;;;;;5071331;28;20031;-86
2023/06/09 04:56:52;;;;;;;2.53;1.42;;;;;;;;;;5072372;28;20031;-85
2023/06/09 04:59:18;;;;;;;2.53;1.98;;;;;;;;;;5072913;28;20024;-85
2023/06/09 05:01:46;;;;;;;3.00;1.58;;;;;;;;;;5066084;28;20029;-86
2023/06/09 05:04:13;;;;;;;2.83;1.70;;;;;;;;;;5069368;28;20029;-84
2023/06/09 05:06:38;;;;;;;2.90;2.08;;;;;;;;;;5070629;28;20108;-84
2023/06/09 05:09:08;;;;;;;1.83;1.63;;;;;;;;;;5052469;28;20112;-86
2023/06/09 05:11:36;;;;;;;2.85;1.55;;;;;;;;;;5080790;28;20108;-85
2023/06/09 05:14:02;;;;;;;2.38;1.65;;;;;;;;;;5070994;28;20103;-84
2023/06/09 05:16:28;;;;;;;2.63;1.90;;;;;;;;;;5069832;28;20024;-86
2023/06/09 05:18:55;;;;;;;2.08;1.88;;;;;;;;;;5066699;28;20021;-85
2023/06/09 05:21:24;;;;;;;3.28;2.45;;;;;;;;;;5054194;28;20472;-85
2023/06/09 05:23:50;;;;;;;6.82;2.30;;;;;;;;;;5053096;28;20016;-84
2023/06/09 05:26:16;;;;;;;1.88;1.73;;;;;;;;;;5071071;28;20107;-83
2023/06/09 05:28:43;;;;;;;2.30;1.80;;;;;;;;;;5052585;28;20074;-84
2023/06/09 05:31:08;;;;;;;2.33;1.55;;;;;;;;;;5072087;28;20029;-84
2023/06/09 05:33:33;;;;;;;4.28;2.13;;;;;;;;;;5069875;28;20024;-85
2023/06/09 05:35:59;;;;;;;1.92;1.38;;;;;;;;;;5072684;28;20111;-85
2023/06/09 05:38:25;;;;;;;3.97;2.13;;;;;;;;;;5071886;28;20028;-83
2023/06/09 05:40:54;;;;;;;2.38;1.88;;;;;;;;;;5052693;28;20036;-82
2023/06/09 05:43:19;;;;;;;2.95;1.83;;;;;;;;;;5067586;28;20032;-83
2023/06/09 05:45:45;;;;;;;2.13;1.50;;;;;;;;;;5071209;28;20703;-85
2023/06/09 05:48:10;;;;;;;2.58;2.00;;;;;;;;;;5050304;28;20495;-88
2023/06/09 05:50:37;;;;;;;2.95;2.05;;;;;;;;;;5070266;28;20027;-84
2023/06/09 05:53:03;;;;;;;5.47;2.40;;;;;;;;;;5069968;28;20535;-83
2023/06/09 05:55:29;;;;;;;3.05;1.77;;;;;;;;;;5050119;28;20191;-83
2023/06/09 05:57:54;;;;;;;4.50;2.38;;;;;;;;;;5068983;28;20097;-84
2023/06/09 06:00:20;;;;;;;1.80;1.50;;;;;;;;;;5070891;28;20475;-84
2023/06/09 06:02:46;;;;;;;1.63;1.52;;;;;;;;;;5072814;28;20021;-84
2023/06/09 06:05:12;;;;;;;2.83;1.70;;;;;;;;;;5070977;28;20392;-84
2023/06/09 06:07:38;;;;;;;3.08;1.75;;;;;;;;;;5070820;28;20024;-84
2023/06/09 06:10:05;;;;;;;5.30;1.80;;;;;;;;;;5071259;28;20056;-84
2023/06/09 06:12:31;;;;;;;3.30;2.67;;;;;;;;;;5052553;28;20558;-84
2023/06/09 06:14:57;;;;;;;2.35;1.45;;;;;;;;;;5051205;28;20028;-84
2023/06/09 06:17:22;;;;;;;2.33;1.73;;;;;;;;;;5050566;28;20181;-85
2023/06/09 06:19:49;;;;;;;5.53;2.30;;;;;;;;;;5066873;28;20522;-84
2023/06/09 06:22:15;;;;;;;3.08;1.75;;;;;;;;;;5065771;28;20163;-84
2023/06/09 06:24:40;;;;;;;3.53;2.08;;;;;;;;;;5069865;28;20115;-84
2023/06/09 06:27:06;;;;;;;0.98;0.70;;;;;;;;;;5071430;28;20115;-85
2023/06/09 06:29:32;;;;;;;2.20;1.60;;;;;;;;;;5045883;28;20094;-84
2023/06/09 06:31:57;;;;;;;1.48;1.15;;;;;;;;;;5050752;28;20551;-85
2023/06/09 06:34:25;;;;;;;2.45;1.63;;;;;;;;;;5068861;28;20182;-84
2023/06/09 06:36:50;;;;;;;2.55;2.03;;;;;;;;;;5068488;28;20396;-83
2023/06/09 06:39:15;;;;;;;3.08;1.80;;;;;;;;;;5067955;28;20028;-84
2023/06/09 06:41:41;;;;;;;2.35;2.10;;;;;;;;;;5069814;28;20561;-82
2023/06/09 06:44:06;;;;;;;2.08;1.33;;;;;;;;;;5070012;28;20024;-85
2023/06/09 06:46:32;;;;;;;1.42;1.13;;;;;;;;;;5069441;28;20046;-84
2023/06/09 06:48:57;;;;;;;1.70;1.25;;;;;;;;;;5067466;28;20028;-83
2023/06/09 06:51:23;;;;;;;1.95;1.75;;;;;;;;;;5068734;28;20567;-86
2023/06/09 06:53:48;;;;;;;2.50;1.80;;;;;;;;;;5048786;28;20033;-84
2023/06/09 06:56:14;;;;;;;2.20;1.27;;;;;;;;;;5068134;28;20024;-85
2023/06/09 06:58:40;;;;;;;0.93;0.93;;;;;;;;;;5066658;28;20099;-84
2023/06/09 07:01:05;;;;;;;2.20;1.52;;;;;;;;;;5069630;28;20067;-83
2023/06/09 07:03:33;;;;;;;2.22;1.63;;;;;;;;;;5070215;28;20040;-84
2023/06/09 07:05:58;;;;;;;1.75;1.17;;;;;;;;;;5069275;28;20021;-87
2023/06/09 07:08:24;;;;;;;1.77;1.20;;;;;;;;;;5066815;28;20034;-88
2023/06/09 07:10:49;;;;;;;1.77;1.27;;;;;;;;;;5051234;28;20032;-87
2023/06/09 07:13:15;;;;;;;1.45;1.23;;;;;;;;;;5069969;28;20117;-84
2023/06/09 07:15:41;;;;;;;2.83;1.02;;;;;;;;;;5052087;28;20021;-86
2023/06/09 07:18:07;;;;;;;3.25;1.42;;;;;;;;;;5069951;28;20473;-86
2023/06/09 07:20:33;;;;;;;1.23;1.10;;;;;;;;;;5069542;28;20036;-87
2023/06/09 07:22:59;;;;;;;3.05;1.92;;;;;;;;;;5068846;28;20578;-87
2023/06/09 07:25:25;;;;;;;2.22;1.48;;;;;;;;;;5049394;28;20032;-87
2023/06/09 07:27:50;;;;;;;1.33;1.00;;;;;;;;;;5052568;28;20016;-88
2023/06/09 07:30:16;;;;;;;1.75;1.20;;;;;;;;;;5052198;28;20028;-86
2023/06/09 07:32:41;;;;;;;2.42;1.58;;;;;;;;;;5070068;28;20111;-86
2023/06/09 07:35:12;;;;;;;2.03;1.42;;;;;;;;;;5072732;28;20567;-91
2023/06/09 07:37:42;;;;;;;1.13;1.02;;;;;;;;;;5056159;28;20032;-85
2023/06/09 07:40:08;;;;;;;;;;;;;;;;;;5072608;28;20119;-88
2023/06/09 07:42:34;;;;;;;0.80;0.77;;;;;;;;;;5073467;28;20353;-89
2023/06/09 07:44:59;;;;;;;2.47;1.70;;;;;;;;;;5054330;28;20039;-86
2023/06/09 07:47:25;;;;;;;1.05;0.88;;;;;;;;;;5075849;28;20035;-84
2023/06/09 07:49:50;;;;;;;1.73;1.23;;;;;;;;;;5069927;28;20032;-87
2023/06/09 07:52:16;;;;;;;1.67;0.98;;;;;;;;;;5072006;28;20379;-87
2023/06/09 07:54:41;;;;;;;2.05;1.10;;;;;;;;;;5054624;28;20044;-88
2023/06/09 07:57:07;;;;;;;2.38;1.35;;;;;;;;;;5055627;28;20564;-87
2023/06/09 07:59:32;;;;;;;1.50;1.15;;;;;;;;;;5068788;28;20024;-86
2023/06/09 08:01:59;;;;;;;1.75;1.30;;;;;;;;;;5055240;28;20040;-87
2023/06/09 08:04:26;;;;;;;2.38;1.60;;;;;;;;;;5071179;28;20017;-86
2023/06/09 08:06:51;;;;;;;4.63;1.25;;;;;;;;;;5072819;28;20021;-84
2023/06/09 08:09:17;;;;;;;3.00;1.42;;;;;;;;;;5072595;28;20030;-87
2023/06/09 08:11:43;;;;;;;1.58;1.00;;;;;;;;;;5055171;28;20032;-85
2023/06/09 08:14:08;;;;;;;2.75;1.60;;;;;;;;;;5071945;28;20032;-84
2023/06/09 08:16:34;;;;;;;2.50;1.38;;;;;;;;;;5053650;28;20034;-87
2023/06/09 08:18:59;;;;;;;1.67;1.45;;;;;;;;;;5071798;28;20571;-84
2023/06/09 08:21:25;;;;;;;3.00;1.77;;;;;;;;;;5071348;28;20028;-86
2023/06/09 08:23:50;;;;;;;5.95;1.35;;;;;;;;;;5068767;28;20028;-87
2023/06/09 08:26:16;;;;;;;2.30;1.63;;;;;;;;;;5072258;28;20024;-86
2023/06/09 08:28:41;;;;;;;2.95;1.40;;;;;;;;;;5070252;28;20052;-89
2023/06/09 08:31:17;;;;;;;2.90;1.35;;;;;;;;;;5070718;28;20082;-86
2023/06/09 08:33:47;;;;;;;1.98;1.35;;;;;;;;;;5088721;28;20028;-84
2023/06/09 08:36:17;;;;;;;2.08;1.27;;;;;;;;;;5050091;28;20040;-85
2023/06/09 08:39:06;;;;;;;1.25;1.05;;;;;;;;;;5039623;28;20128;-89
2023/06/09 08:41:38;;;;;;;1.05;0.98;;;;;;;;;;5040743;28;20025;-84
2023/06/09 08:44:13;;;;;;;2.63;1.48;;;;;;;;;;5034938;28;20423;-88
2023/06/09 08:50:05;;;;;;;1.35;1.20;;;;;;;;;;4992394;28;20045;-85
2023/06/09 08:52:35;;;;;;;1.08;1.00;;;;;;;;;;4971447;28;21352;-85
2023/06/09 08:55:05;;;;;;;2.75;1.67;;;;;;;;;;5020053;28;20033;-83
2023/06/09 08:58:26;;;;;;;1.58;1.40;;;;;;;;;;5037080;28;20071;-85
2023/06/09 09:00:55;;;;;;;2.92;1.50;;;;;;;;;;5039954;28;20082;-82
2023/06/09 09:03:22;;;;;;;1.67;1.17;;;;;;;;;;5033543;28;20087;-86
2023/06/09 09:05:48;;;;;;;3.50;1.88;;;;;;;;;;5036746;28;20047;-84
2023/06/09 09:08:24;;;;;;;1.75;1.40;;;;;;;;;;5036515;28;20029;-87
2023/06/09 09:10:55;;;;;;;2.38;1.40;;;;;;;;;;5052062;28;20489;-85
2023/06/09 09:13:30;;;;;;;2.50;1.52;;;;;;;;;;5040611;28;20052;-85
2023/06/09 09:16:18;;;;;;;6.55;1.25;;;;;;;;;;5035763;28;20032;-84
2023/06/09 09:19:03;;;;;;;2.50;1.40;;;;;;;;;;5041135;28;20100;-83
2023/06/09 09:22:10;;;;;;;1.77;1.42;;;;;;;;;;5037128;28;20040;-86
2023/06/09 09:24:35;;;;;;;2.05;1.42;;;;;;;;;;4965634;28;20061;-84
2023/06/09 09:27:04;;;;;;;1.85;1.17;;;;;;;;;;5063249;28;20477;-88
2023/06/09 09:29:38;;;;;;;3.80;1.30;;;;;;;;;;5057612;28;20061;-82
2023/06/09 09:32:05;;;;;;;1.70;1.27;;;;;;;;;;5030028;28;20025;-87
2023/06/09 09:34:32;;;;;;;2.45;1.27;;;;;;;;;;5045357;28;20025;-84
2023/06/09 09:36:58;;;;;;;5.57;2.08;;;;;;;;;;5043185;28;20067;-86
2023/06/09 09:39:24;;;;;;;3.47;1.48;;;;;;;;;;5048542;28;20021;-85
2023/06/09 09:42:02;;;;;;;1.05;0.95;;;;;;;;;;5045155;28;20029;-86
2023/06/09 09:44:42;;;;;;;2.17;1.63;;;;;;;;;;5046486;28;20025;-84
2023/06/09 09:47:19;;;;;;;2.28;1.52;;;;;;;;;;5042152;28;20030;-86
2023/06/09 09:49:50;;;;;;;1.50;1.20;;;;;;;;;;5046975;28;20037;-86
2023/06/09 09:52:21;;;;;;;2.08;1.23;;;;;;;;;;5038187;28;20062;-85
2023/06/09 09:54:47;;;;;;;1.27;1.17;;;;;;;;;;5035958;28;20018;-85
2023/06/09 09:57:13;;;;;;;2.22;1.42;;;;;;;;;;5053120;28;20033;-87
2023/06/09 09:59:38;;;;;;;2.80;1.20;;;;;;;;;;5051439;28;21522;-84
2023/06/09 10:02:05;;;;;;;3.03;1.40;;;;;;;;;;5047426;28;20025;-87
2023/06/09 10:04:31;;;;;;;2.45;1.35;;;;;;;;;;5041749;28;20049;-84
2023/06/09 10:07:03;;;;;;;2.28;1.52;;;;;;;;;;5050302;28;20488;-86
2023/06/09 10:09:28;;;;;;;0.85;0.73;;;;;;;;;;5050107;28;20053;-86
2023/06/09 10:11:55;;;;;;;2.20;1.60;;;;;;;;;;5049393;28;20065;-84
2023/06/09 10:14:21;;;;;;;0.93;0.85;;;;;;;;;;5041365;28;20021;-84
2023/06/09 10:16:51;;;;;;;2.22;1.80;;;;;;;;;;5051452;28;20035;-84
2023/06/09 10:19:18;;;;;;;2.08;1.30;;;;;;;;;;5048191;28;20017;-86
2023/06/09 10:21:46;;;;;;;1.80;1.40;;;;;;;;;;5052313;28;20068;-87
2023/06/09 10:24:12;;;;;;;1.23;1.10;;;;;;;;;;5048873;28;20037;-86
2023/06/09 10:26:38;;;;;;;3.17;1.83;;;;;;;;;;5050290;28;20024;-83
2023/06/09 10:29:11;;;;;;;2.13;1.40;;;;;;;;;;5043197;28;20025;-86
2023/06/09 10:31:44;;;;;;;2.05;1.60;;;;;;;;;;5053952;28;20028;-86
2023/06/09 10:34:11;;;;;;;1.33;1.20;;;;;;;;;;5052044;28;20099;-84
2023/06/09 10:36:40;;;;;;;1.20;1.05;;;;;;;;;;5066421;28;20053;-86
2023/06/09 10:39:17;;;;;;;2.50;1.52;;;;;;;;;;5066726;28;20028;-83
2023/06/09 10:41:55;;;;;;;1.70;1.42;;;;;;;;;;5069363;28;20446;-82
2023/06/09 10:45:06;;;;;;;1.35;1.15;;;;;;;;;;5069101;28;20036;-86
2023/06/09 10:47:44;;;;;;;2.50;1.33;;;;;;;;;;5055111;28;20408;-84
2023/06/09 10:50:30;;;;;;;1.63;1.05;;;;;;;;;;5047398;28;20108;-85
2023/06/09 10:52:57;;;;;;;1.77;1.17;;;;;;;;;;5064154;28;20020;-82
2023/06/09 10:55:30;;;;;;;2.05;1.23;;;;;;;;;;5065344;28;20386;-84
2023/06/09 10:57:57;;;;;;;1.67;1.08;;;;;;;;;;5069208;28;20033;-84
2023/06/09 11:00:23;;;;;;;1.17;1.05;;;;;;;;;;5049498;28;20028;-85
2023/06/09 11:03:11;;;;;;;5.05;1.65;;;;;;;;;;5052003;28;20160;-82
2023/06/09 11:05:42;;;;;;;1.67;1.27;;;;;;;;;;5049062;28;20028;-86
2023/06/09 11:08:07;;;;;;;1.85;0.90;;;;;;;;;;5077556;28;20086;-84
2023/06/09 11:10:35;;;;;;;1.75;1.10;;;;;;;;;;5066813;28;20427;-81
2023/06/09 11:13:03;;;;;;;1.40;1.10;;;;;;;;;;5048287;28;20032;-82
2023/06/09 11:15:55;;;;;;;1.50;1.00;;;;;;;;;;5049202;28;20029;-86
2023/06/09 11:18:20;;;;;;;2.70;1.52;;;;;;;;;;5066733;28;20028;-88
2023/06/09 11:21:07;;;;;;;1.92;1.25;;;;;;;;;;5051842;28;20036;-86
2023/06/09 11:23:32;;;;;;;1.52;1.27;;;;;;;;;;5065228;28;20366;-83
2023/06/09 11:25:58;;;;;;;1.75;1.13;;;;;;;;;;5074706;28;20095;-86
2023/06/09 11:28:23;;;;;;;1.00;0.90;;;;;;;;;;5070602;28;20082;-84
2023/06/09 11:31:05;;;;;;;1.58;1.30;;;;;;;;;;5069256;28;20043;-84
2023/06/09 11:33:43;;;;;;;2.50;1.27;;;;;;;;;;5067295;28;20511;-86
2023/06/09 11:36:09;;;;;;;2.38;1.60;;;;;;;;;;5046523;28;20041;-86
2023/06/09 11:38:34;;;;;;;2.20;1.20;;;;;;;;;;5070573;28;20494;-88
2023/06/09 11:41:02;;;;;;;1.25;1.15;;;;;;;;;;5053311;28;20024;-86
2023/06/09 11:43:27;;;;;;;1.20;0.88;;;;;;;;;;5068692;28;20055;-85
2023/06/09 11:46:01;;;;;;;1.48;1.20;;;;;;;;;;5069044;28;20029;-85
2023/06/09 11:48:26;;;;;;;1.50;1.20;;;;;;;;;;5051064;28;20024;-87
2023/06/09 11:50:52;;;;;;;1.58;1.20;;;;;;;;;;5067453;28;20041;-85
2023/06/09 11:53:20;;;;;;;1.38;1.27;;;;;;;;;;5052403;28;20024;-86
2023/06/09 11:55:46;;;;;;;1.30;0.88;;;;;;;;;;5071144;28;20017;-86
2023/06/09 11:58:14;;;;;;;1.98;1.33;;;;;;;;;;5063370;28;20089;-85
2023/06/09 12:00:41;;;;;;;2.10;1.60;;;;;;;;;;5071136;28;20059;-84
2023/06/09 12:03:07;;;;;;;2.17;1.17;;;;;;;;;;5065812;28;20056;-86
2023/06/09 12:05:34;;;;;;;1.50;1.10;;;;;;;;;;5068374;28;20075;-87
2023/06/09 12:08:02;;;;;;;0.68;0.60;;;;;;;;;;5068916;28;20039;-86
2023/06/09 12:10:29;;;;;;;1.13;0.98;;;;;;;;;;5060605;28;20036;-87
2023/06/09 12:12:57;;;;;;;1.55;0.77;;;;;;;;;;5071970;28;20048;-89
2023/06/09 12:15:23;;;;;;;1.38;0.80;;;;;;;;;;5051383;28;20922;-86
2023/06/09 12:17:51;;;;;;;2.00;1.00;;;;;;;;;;5070612;28;20098;-85
2023/06/09 12:20:36;;;;;;;0.57;0.52;;;;;;;;;;5067619;28;20025;-86
2023/06/09 12:23:07;;;;;;;2.13;1.20;;;;;;;;;;5068101;28;20046;-84
2023/06/09 12:25:34;;;;;;;1.27;0.93;;;;;;;;;;5072591;28;20028;-85
2023/06/09 12:28:26;;;;;;;1.35;0.90;;;;;;;;;;5067864;28;20020;-88
2023/06/09 12:31:15;;;;;;;1.35;1.02;;;;;;;;;;5069155;28;20024;-86
2023/06/09 12:33:47;;;;;;;0.65;0.65;;;;;;;;;;5069034;28;20401;-84
2023/06/09 12:36:12;;;;;;;3.00;0.93;;;;;;;;;;5053096;28;20033;-85
2023/06/09 12:38:43;;;;;;;1.52;0.98;;;;;;;;;;5044565;28;20398;-86
2023/06/09 12:41:14;;;;;;;0.70;0.63;;;;;;;;;;5047604;28;20044;-85
2023/06/09 12:43:55;;;;;;;1.63;1.23;;;;;;;;;;5045730;28;20096;-85
2023/06/09 12:46:35;;;;;;;0.85;0.70;;;;;;;;;;5049459;28;20137;-86
2023/06/09 12:49:06;;;;;;;0.80;0.80;;;;;;;;;;5043386;28;20389;-87
2023/06/09 12:51:34;;;;;;;3.00;1.02;;;;;;;;;;5031888;28;20021;-89
2023/06/09 12:54:00;;;;;;;0.85;0.77;;;;;;;;;;5032288;28;20029;-88
2023/06/09 12:56:26;;;;;;;2.17;0.98;;;;;;;;;;5033423;28;20025;-87
2023/06/09 12:58:53;;;;;;;0.90;0.70;;;;;;;;;;5055678;28;20154;-89
2023/06/09 13:01:20;;;;;;;1.17;0.77;;;;;;;;;;5053167;28;20079;-85
2023/06/09 13:03:46;;;;;;;0.68;0.68;;;;;;;;;;5052543;28;20036;-86
2023/06/09 13:06:11;;;;;;;1.00;0.90;;;;;;;;;;5049037;28;20025;-83
2023/06/09 13:08:37;;;;;;;1.23;0.98;;;;;;;;;;5055735;28;20044;-86
2023/06/09 13:11:02;;;;;;;1.00;0.90;;;;;;;;;;5055678;28;20056;-84
2023/06/09 13:13:27;;;;;;;1.38;1.00;;;;;;;;;;5053406;28;20029;-87
2023/06/09 13:15:53;;;;;;;1.55;1.00;;;;;;;;;;5053425;28;20025;-84
2023/06/09 13:18:19;;;;;;;1.95;1.15;;;;;;;;;;5049370;28;20029;-84
2023/06/09 13:20:44;;;;;;;1.92;1.30;;;;;;;;;;5047870;28;20533;-84
2023/06/09 13:23:10;;;;;;;10.38;1.27;;;;;;;;;;5051122;28;20025;-84
2023/06/09 13:25:43;;;;;;;1.42;1.20;;;;;;;;;;5050972;28;20025;-85
2023/06/09 13:28:09;;;;;;;1.60;1.25;;;;;;;;;;5051423;28;20108;-84
2023/06/09 13:30:36;;;;;;;1.65;1.08;;;;;;;;;;5049731;28;20416;-83
2023/06/09 13:33:01;;;;;;;2.88;1.40;;;;;;;;;;5051040;28;20032;-85
2023/06/09 13:35:28;;;;;;;2.45;1.33;;;;;;;;;;5058424;28;20040;-85
2023/06/09 13:37:56;;;;;;;1.50;1.10;;;;;;;;;;5070272;28;20061;-88
2023/06/09 13:40:21;;;;;;;1.10;1.00;;;;;;;;;;5070900;28;20028;-84
2023/06/09 13:42:52;;;;;;;1.52;1.15;;;;;;;;;;5069953;28;20078;-86
2023/06/09 13:45:21;;;;;;;2.03;1.38;;;;;;;;;;5070086;28;20059;-84
2023/06/09 13:47:47;;;;;;;1.30;1.05;;;;;;;;;;5067018;28;20027;-83
2023/06/09 13:50:12;;;;;;;1.58;1.20;;;;;;;;;;5069629;28;20020;-82
2023/06/09 13:52:39;;;;;;;1.08;0.85;;;;;;;;;;5070607;28;20021;-82
2023/06/09 13:55:05;;;;;;;0.85;0.75;;;;;;;;;;5070659;28;20020;-84
2023/06/09 13:57:31;;;;;;;1.40;0.90;;;;;;;;;;5068537;28;20032;-82
2023/06/09 13:59:56;;;;;;;1.42;1.00;;;;;;;;;;5052158;28;20055;-82
2023/06/09 14:02:22;;;;;;;0.85;0.73;;;;;;;;;;5070355;28;20473;-85
2023/06/09 14:04:48;;;;;;;5.32;1.13;;;;;;;;;;5052378;28;20036;-84
2023/06/09 14:07:14;;;;;;;0.93;0.80;;;;;;;;;;5071667;28;20027;-83
2023/06/09 14:09:39;;;;;;;1.30;0.90;;;;;;;;;;5068396;28;20488;-83
2023/06/09 14:12:05;;;;;;;1.38;1.10;;;;;;;;;;5070550;28;20116;-81
2023/06/09 14:14:31;;;;;;;1.85;0.77;;;;;;;;;;5051143;28;20028;-82
2023/06/09 14:16:57;;;;;;;0.90;0.57;;;;;;;;;;5051205;28;20028;-83
2023/06/09 14:19:23;;;;;;;1.08;0.77;;;;;;;;;;5069360;28;20067;-82
2023/06/09 14:21:49;;;;;;;0.60;0.60;;;;;;;;;;5068352;28;20059;-83
2023/06/09 14:24:16;;;;;;;0.88;0.80;;;;;;;;;;5070029;28;20035;-84
2023/06/09 14:26:42;;;;;;;1.02;0.70;;;;;;;;;;5052763;28;20036;-83
2023/06/09 14:29:08;;;;;;;1.45;1.02;;;;;;;;;;5069363;28;20055;-85
2023/06/09 14:31:33;;;;;;;1.00;0.63;;;;;;;;;;5067354;28;20064;-84
2023/06/09 14:33:59;;;;;;;1.05;0.77;;;;;;;;;;5066780;28;20032;-84
2023/06/09 14:36:25;;;;;;;2.13;0.98;;;;;;;;;;5058486;28;20055;-84
2023/06/09 14:38:50;;;;;;;1.08;0.88;;;;;;;;;;5057252;28;20029;-86
2023/06/09 14:41:16;;;;;;;0.80;0.68;;;;;;;;;;5044742;28;20392;-87
2023/06/09 14:43:41;;;;;;;1.27;1.08;;;;;;;;;;5055347;28;20055;-85
2023/06/09 14:46:07;;;;;;;1.35;0.82;;;;;;;;;;5057907;28;20029;-86
2023/06/09 14:48:32;;;;;;;1.33;0.90;;;;;;;;;;5062308;28;20841;-87
2023/06/09 14:50:57;;;;;;;1.27;0.88;;;;;;;;;;5062558;28;20033;-86
2023/06/09 14:53:23;;;;;;;0.43;0.43;;;;;;;;;;5059710;28;20029;-85
2023/06/09 14:55:49;;;;;;;1.33;1.00;;;;;;;;;;5049337;28;20036;-86
2023/06/09 14:58:16;;;;;;;1.60;0.93;;;;;;;;;;5055645;28;20040;-86
2023/06/09 15:00:43;;;;;;;1.42;1.02;;;;;;;;;;5039155;28;20036;-86
2023/06/09 15:03:13;;;;;;;3.90;1.60;;;;;;;;;;5031932;28;20040;-85
2023/06/09 15:05:39;;;;;;;2.60;1.52;;;;;;;;;;5063201;28;20044;-85
2023/06/09 15:08:06;;;;;;;1.98;1.20;;;;;;;;;;5053732;28;20037;-86
2023/06/09 15:10:37;;;;;;;1.92;1.00;;;;;;;;;;5055497;28;20120;-84
2023/06/09 15:13:04;;;;;;;1.48;0.90;;;;;;;;;;5056088;28;20029;-86
2023/06/09 15:15:29;;;;;;;2.78;1.52;;;;;;;;;;5057168;28;20024;-84
2023/06/09 15:18:04;;;;;;;1.77;1.15;;;;;;;;;;5057449;28;20104;-85
2023/06/09 15:20:30;;;;;;;2.05;1.25;;;;;;;;;;5050005;28;20052;-85
2023/06/09 15:22:58;;;;;;;1.85;1.05;;;;;;;;;;5056851;28;20032;-91
2023/06/09 15:25:28;;;;;;;6.65;0.50;;;;;;;;;;5034467;28;20108;-85
2023/06/09 15:28:00;;;;;;;1.17;0.93;;;;;;;;;;5057809;28;20025;-84
2023/06/09 15:30:29;;;;;;;4.53;1.48;;;;;;;;;;5041008;28;20102;-89
2023/06/09 15:33:16;;;;;;;1.13;0.80;;;;;;;;;;5025318;28;20052;-88
2023/06/09 15:35:44;;;;;;;2.97;1.52;;;;;;;;;;5043840;28;20040;-88
2023/06/09 15:38:13;;;;;;;1.55;1.15;;;;;;;;;;5058360;28;20028;-87
2023/06/09 15:40:48;;;;;;;2.33;1.03;;;;;;;;;;5060773;28;20036;-82
2023/06/09 15:43:15;;;;;;;1.02;0.77;;;;;;;;;;5036484;28;20029;-84
2023/06/09 15:45:41;;;;;;;2.67;1.92;;;;;;;;;;5048807;28;20372;-86
2023/06/09 15:48:08;;;;;;;1.20;1.00;;;;;;;;;;5052777;28;20020;-87
2023/06/09 15:50:38;;;;;;;1.52;0.88;;;;;;;;;;5046017;28;20036;-84
2023/06/09 15:53:04;;;;;;;1.30;1.00;;;;;;;;;;5034072;28;20086;-83
2023/06/09 15:55:30;;;;;;;1.55;1.45;;;;;;;;;;5039955;28;20469;-83
2023/06/09 15:57:56;;;;;;;1.60;1.10;;;;;;;;;;5055006;28;20029;-83
2023/06/09 16:00:22;;;;;;;3.17;1.63;;;;;;;;;;5054641;28;20086;-86